x

Long Key, Fl (lonf1) Weather Station

2:00pm - Fri 26th May 2017 All times are CDT. -4 hours from GMT.

  • Wind
    1mph, 2mph gusts
  • Sea Temp 86°f
  • Air Temp 85°f
  • Sea Pressure 1017.2mb
  • Long Key, Fl
  • Long Key, Fl

More Historic Weather Station data

Upgrade to MSW Pro to gain access to the past 30 days of data for over 8000 Wavebouys and Weather Stations around the globe.

Join Pro

Comparision Forecast

View Surf forecast
   
Fri 05/26 2:00pm 1 2 mph 1017.2mb 86f 85f
1:00pm  -  0 mph 1017.6mb 85f 85f
12:00pm  -  1 mph 1017.9mb 85f 88f
11:00am 2 2 mph 1017.8mb 84f 87f
10:00am  -  1 mph 1017.8mb 84f 84f
9:00am 5 6 mph 1017.6mb 83f 83f
8:00am  -  1 mph 1016.8mb 83f 83f
7:00am 5 5 mph 1016.1mb 83f 82f
6:00am 5 6 mph 1015.4mb 83f 83f
5:00am 6 7 mph 1015.2mb 83f 82f
4:00am 7 8 mph 1015mb 83f 82f
3:00am 6 8 mph 1015mb 83f 83f
2:00am 3 5 mph 1015.2mb 84f 82f
1:00am 2 2 mph 1015.7mb 84f 83f
12:00am 2 2 mph 1015.6mb 84f 83f
Thu 05/25 11:00pm 3 5 mph 1015.1mb 84f 83f
10:00pm 2 5 mph 1014.6mb 84f 83f
9:00pm 2 3 mph 1014.1mb 84f 83f
8:00pm 9 11 mph 1013.6mb 84f 83f
7:00pm 13 14 mph 1012.6mb 84f 84f
6:00pm 11 13 mph 1012.3mb 84f 84f
5:00pm 8 9 mph 1012.5mb 84f 83f
4:00pm 11 13 mph 1012.8mb 84f 83f
3:00pm 16 18 mph 1012.9mb 84f 83f
2:00pm 17 21 mph 1013mb 84f 83f
1:00pm 22 26 mph 1013.4mb 84f 83f
12:00pm 21 25 mph 1013.8mb 83f 83f
11:00am 22 24 mph 1013.3mb 83f 82f
10:00am 17 20 mph 1012.9mb 83f 82f
9:00am 22 23 mph 1012.2mb 83f 82f
8:00am 20 23 mph 1011.5mb 83f 82f
7:00am 21 25 mph 1011.2mb 83f 82f
5:00am 21
mph
- - -
4:00am 11 13 mph 1010.6mb 83f 80f
3:00am 14 15 mph 1011mb 83f 80f
2:00am 15 16 mph 1011.7mb 84f 80f
1:00am 14 15 mph 1012.2mb 84f 81f
12:00am 16 18 mph - 84f 80f
Wed 05/24 11:00pm 14 15 mph 1012.7mb 84f 78f
10:00pm 23 26 mph 1013.5mb 85f 76f
9:00pm 31 33 mph 1011.9mb 85f 76f
8:00pm 17 20 mph 1010.7mb 85f 84f
7:00pm 16 18 mph 1009.9mb 85f 83f
6:00pm 18 21 mph 1010mb 85f 83f
5:00pm 11 14 mph 1010.5mb 85f 83f
4:00pm 18 20 mph 1010.2mb 85f 83f
3:00pm 17 20 mph 1010.5mb 85f 83f
2:00pm 21 23 mph 1010.8mb 84f 82f
1:00pm 18 21 mph 1011.6mb 84f 82f
12:00pm 17 18 mph 1012.3mb 84f 82f
11:00am 20 22 mph 1012.1mb 83f 82f
10:00am 17 20 mph 1011.6mb 83f 81f
9:00am 18 20 mph 1011.1mb 83f 81f
8:00am 20 22 mph 1011.1mb 83f 81f
7:00am 17 20 mph 1011.6mb 83f 81f
6:00am 16 17 mph 1011.7mb 83f 81f
5:00am 17 20 mph 1011.7mb 83f 81f
4:00am 16 18 mph 1011.7mb 83f 81f
3:00am 14 15 mph 1012.3mb 83f 81f
2:00am 15 17 mph 1012.7mb 84f 82f
1:00am 15 16 mph 1013.4mb 84f 82f
12:00am 17 20 mph 1013.7mb 84f 82f
Tue 05/23 11:00pm 17 18 mph 1013.6mb 84f 81f
10:00pm 15 17 mph 1013.1mb 84f 81f
9:00pm 11 13 mph 1012.9mb 84f 81f
8:00pm 10 11 mph 1012.7mb 84f 81f
7:00pm 9 10 mph 1012.6mb 85f 82f
6:00pm 11 13 mph 1012.6mb 84f 82f
5:00pm 10 13 mph 1013mb 84f 82f
4:00pm 14 16 mph 1013.3mb 84f 81f
3:00pm 13 16 mph 1014mb 84f 82f
2:00pm 13 15 mph 1014.5mb 84f 81f
1:00pm 15 16 mph 1014.9mb 83f 82f
12:00pm 14 16 mph 1015.2mb 83f 81f
11:00am 16 20 mph 1015.5mb 83f 81f
10:00am 15 16 mph 1015.7mb 82f 81f
9:00am 14 16 mph 1015.5mb 82f 81f
8:00am 15 17 mph 1015.2mb 82f 80f
7:00am 15 17 mph 1014.7mb 82f 80f
6:00am 17 20 mph 1014.2mb 82f 80f
5:00am 17 18 mph 1014mb 83f 80f
4:00am 14 17 mph 1014.3mb 83f 80f
3:00am 15 16 mph 1014.8mb 83f 80f
2:00am 16 17 mph 1015.1mb 83f 80f
1:00am 16 18 mph 1015.7mb 84f 80f
12:00am 15 16 mph 1016.4mb 84f 80f
Mon 05/22 11:00pm 16 17 mph 1016.7mb 84f 80f
10:00pm 14 16 mph 1016.6mb 84f 81f
9:00pm 14 15 mph 1016.5mb 85f 80f
8:00pm 11 14 mph 1015.5mb 85f 81f